createdAt,value
2018-05-29T00:01:23.606Z,19.03
2018-05-29T00:03:51.879Z,17.53
2018-05-29T00:06:21.059Z,16.43
2018-05-29T00:08:51.356Z,18.43
2018-05-29T00:11:19.662Z,18.07
2018-05-29T00:13:48.020Z,20.03
2018-05-29T00:16:16.288Z,18.60
2018-05-29T00:18:44.570Z,17.60
2018-05-29T00:21:12.839Z,17.93
2018-05-29T00:23:42.666Z,19.40
2018-05-29T00:26:10.902Z,18.53
2018-05-29T00:28:39.197Z,18.63
2018-05-29T00:31:07.474Z,18.97
2018-05-29T00:33:36.803Z,19.47
2018-05-29T00:36:05.077Z,22.00
2018-05-29T00:38:33.422Z,20.43
2018-05-29T00:41:01.702Z,21.00
2018-05-29T00:43:29.998Z,20.57
2018-05-29T00:45:58.375Z,20.30
2018-05-29T00:48:29.007Z,22.00
2018-05-29T00:50:57.302Z,20.00
2018-05-29T00:56:18.588Z,22.17
2018-05-29T00:58:46.978Z,21.20
2018-05-29T01:01:15.279Z,21.73
2018-05-29T01:03:44.314Z,21.07
2018-05-29T01:06:12.592Z,22.57
2018-05-29T01:08:41.991Z,22.30
2018-05-29T01:11:10.263Z,22.77
2018-05-29T01:13:38.533Z,23.33
2018-05-29T01:16:06.897Z,22.43
2018-05-29T01:18:35.998Z,22.80
2018-05-29T01:21:04.306Z,23.97
2018-05-29T01:23:32.670Z,23.23
2018-05-29T01:26:01.063Z,23.63
2018-05-29T01:28:29.337Z,22.20
2018-05-29T01:30:57.611Z,23.63
2018-05-29T01:33:25.883Z,24.07
2018-05-29T01:35:54.188Z,22.10
2018-05-29T01:38:22.450Z,23.93
2018-05-29T01:40:50.747Z,24.37
2018-05-29T01:43:19.016Z,23.77
2018-05-29T01:45:47.519Z,24.37
2018-05-29T01:48:16.563Z,24.50
2018-05-29T01:50:44.830Z,22.83
2018-05-29T01:53:13.112Z,22.40
2018-05-29T01:55:41.572Z,22.67
2018-05-29T01:58:10.484Z,22.80
2018-05-29T02:00:38.756Z,22.67
2018-05-29T02:03:07.026Z,25.00
2018-05-29T02:05:35.309Z,24.60
2018-05-29T02:08:03.562Z,24.10
2018-05-29T02:10:33.490Z,21.93
2018-05-29T02:13:06.549Z,22.77
2018-05-29T02:15:34.818Z,22.77
2018-05-29T02:18:04.197Z,24.70
2018-05-29T02:20:33.312Z,24.17
2018-05-29T02:23:01.692Z,24.47
2018-05-29T02:25:30.722Z,25.60
2018-05-29T02:27:59.055Z,23.83
2018-05-29T02:30:28.078Z,26.73
2018-05-29T02:32:56.364Z,24.37
2018-05-29T02:35:24.622Z,25.43
2018-05-29T02:37:52.976Z,23.27
2018-05-29T02:40:22.027Z,26.83
2018-05-29T02:42:50.290Z,25.50
2018-05-29T02:45:18.598Z,23.90
2018-05-29T02:47:46.881Z,22.80
2018-05-29T02:50:18.986Z,22.37
2018-05-29T02:52:47.398Z,22.20
2018-05-29T02:55:15.834Z,22.77
2018-05-29T02:57:44.132Z,24.97
2018-05-29T03:00:12.509Z,23.73
2018-05-29T03:02:40.766Z,23.77
2018-05-29T03:05:09.261Z,23.93
2018-05-29T03:07:37.522Z,23.93
2018-05-29T03:10:05.824Z,26.73
2018-05-29T03:12:34.083Z,24.80
2018-05-29T03:15:02.393Z,25.67
2018-05-29T03:17:30.642Z,26.57
2018-05-29T03:19:58.974Z,26.87
2018-05-29T03:22:27.345Z,25.83
2018-05-29T03:24:56.400Z,25.67
2018-05-29T03:27:24.662Z,25.77
2018-05-29T03:29:53.002Z,24.60
2018-05-29T03:32:22.658Z,29.40
2018-05-29T03:34:51.036Z,23.83
2018-05-29T03:37:19.305Z,21.33
2018-05-29T03:39:47.611Z,27.10
2018-05-29T03:42:15.905Z,23.47
2018-05-29T03:44:45.018Z,23.50
2018-05-29T03:47:13.296Z,25.37
2018-05-29T03:49:42.717Z,26.97
2018-05-29T03:52:12.881Z,26.23
2018-05-29T03:54:41.147Z,27.97
2018-05-29T03:57:09.531Z,28.77
2018-05-29T03:59:37.826Z,24.40
2018-05-29T04:02:06.106Z,26.13
2018-05-29T04:04:35.239Z,26.07
2018-05-29T04:07:04.914Z,26.23
2018-05-29T04:09:33.247Z,28.57
2018-05-29T04:12:01.612Z,29.20
2018-05-29T04:14:30.756Z,26.70
2018-05-29T04:16:59.123Z,28.60
2018-05-29T04:19:31.242Z,27.90
2018-05-29T04:21:59.519Z,27.70
2018-05-29T04:24:27.781Z,25.97
2018-05-29T04:26:56.059Z,24.83
2018-05-29T04:29:24.381Z,24.80
2018-05-29T04:31:56.350Z,25.40
2018-05-29T04:34:24.922Z,24.07
2018-05-29T04:36:53.165Z,25.63
2018-05-29T04:39:21.603Z,24.33
2018-05-29T04:41:49.878Z,25.70
2018-05-29T04:44:18.278Z,23.90
2018-05-29T04:46:46.906Z,23.83
2018-05-29T04:49:16.723Z,23.07
2018-05-29T04:51:45.011Z,23.97
2018-05-29T04:54:14.082Z,24.43
2018-05-29T04:56:43.170Z,23.77
2018-05-29T04:59:11.455Z,24.87
2018-05-29T05:01:39.873Z,25.63
2018-05-29T05:04:08.152Z,23.87
2018-05-29T05:06:36.431Z,24.70
2018-05-29T05:09:05.544Z,25.33
2018-05-29T05:11:33.846Z,24.10
2018-05-29T05:14:02.129Z,25.10
2018-05-29T05:16:30.402Z,26.63
2018-05-29T05:18:58.905Z,25.93
2018-05-29T05:21:27.961Z,25.17
2018-05-29T05:23:56.323Z,24.07
2018-05-29T05:26:24.623Z,26.43
2018-05-29T05:28:52.906Z,26.20
2018-05-29T05:31:21.280Z,26.13
2018-05-29T05:33:49.559Z,23.03
2018-05-29T05:36:17.931Z,24.73
2018-05-29T05:38:46.278Z,23.90
2018-05-29T05:41:14.567Z,24.67
2018-05-29T05:43:42.843Z,24.17
2018-05-29T05:46:11.143Z,23.57
2018-05-29T05:48:39.415Z,23.67
2018-05-29T05:51:07.717Z,23.60
2018-05-29T05:53:35.963Z,23.90
2018-05-29T05:56:04.249Z,22.57
2018-05-29T05:58:33.385Z,21.60
2018-05-29T06:01:01.843Z,23.97
2018-05-29T06:03:30.208Z,22.37
2018-05-29T06:05:58.451Z,22.00
2018-05-29T06:08:26.749Z,22.30
2018-05-29T06:10:55.114Z,22.67
2018-05-29T06:13:23.487Z,20.80
2018-05-29T06:15:52.545Z,21.53
2018-05-29T06:18:22.395Z,21.53
2018-05-29T06:20:50.699Z,20.87
2018-05-29T06:23:19.744Z,20.97
2018-05-29T06:25:48.026Z,21.27
2018-05-29T06:28:16.311Z,20.60
2018-05-29T06:30:44.659Z,18.37
2018-05-29T06:33:13.056Z,19.50
2018-05-29T06:35:41.313Z,19.23
2018-05-29T06:38:09.663Z,17.03
2018-05-29T06:40:37.878Z,16.77
2018-05-29T06:43:06.170Z,17.67
2018-05-29T06:45:34.450Z,16.97
2018-05-29T06:48:02.739Z,16.60
2018-05-29T06:50:31.803Z,15.37
2018-05-29T06:53:00.077Z,15.20
2018-05-29T06:55:28.376Z,16.63
2018-05-29T06:57:57.518Z,16.70
2018-05-29T07:00:25.934Z,17.33
2018-05-29T07:02:55.713Z,16.57
2018-05-29T07:05:23.985Z,16.43
2018-05-29T07:07:52.263Z,16.43
2018-05-29T07:10:20.566Z,16.70
2018-05-29T07:12:48.839Z,13.97
2018-05-29T07:15:17.120Z,14.63
2018-05-29T07:17:45.424Z,14.07
2018-05-29T07:20:14.466Z,13.57
2018-05-29T07:22:42.739Z,14.03
2018-05-29T07:25:11.034Z,13.93
2018-05-29T07:27:39.322Z,13.27
2018-05-29T07:30:09.162Z,14.30
2018-05-29T07:32:38.246Z,11.93
2018-05-29T07:35:07.479Z,11.53
2018-05-29T07:37:36.487Z,11.07
2018-05-29T07:40:04.815Z,11.97
2018-05-29T07:42:33.859Z,11.93
2018-05-29T07:45:02.123Z,12.03
2018-05-29T07:47:30.396Z,12.53
2018-05-29T07:49:58.734Z,12.63
2018-05-29T07:52:27.932Z,11.00
2018-05-29T07:54:57.012Z,11.50
2018-05-29T07:57:26.047Z,11.13
2018-05-29T07:59:54.342Z,11.00
2018-05-29T08:02:22.610Z,12.10
2018-05-29T08:04:50.881Z,11.50
2018-05-29T08:07:19.188Z,10.53
2018-05-29T08:09:47.455Z,10.53
2018-05-29T08:12:15.905Z,11.10
2018-05-29T08:14:44.191Z,10.87
2018-05-29T08:17:12.478Z,10.80
2018-05-29T08:19:40.839Z,10.37
2018-05-29T08:22:09.142Z,11.90
2018-05-29T08:24:37.412Z,10.80
2018-05-29T08:27:05.713Z,10.80
2018-05-29T08:29:33.979Z,10.33
2018-05-29T08:32:02.270Z,10.70
2018-05-29T08:34:30.567Z,9.70
2018-05-29T08:36:59.614Z,11.13
2018-05-29T08:39:27.938Z,9.93
2018-05-29T08:41:56.165Z,10.17
2018-05-29T08:44:24.470Z,10.53
2018-05-29T08:46:53.569Z,9.73
2018-05-29T08:49:22.596Z,9.93
2018-05-29T08:51:50.989Z,10.10
2018-05-29T08:54:19.719Z,10.60
2018-05-29T08:56:49.550Z,9.90
2018-05-29T08:59:18.631Z,10.30
2018-05-29T09:01:46.898Z,9.90
2018-05-29T09:04:16.036Z,9.83
2018-05-29T09:06:44.287Z,9.43
2018-05-29T09:09:17.751Z,9.30
2018-05-29T09:11:46.037Z,10.57
2018-05-29T09:14:14.316Z,9.23
2018-05-29T09:16:43.391Z,10.30
2018-05-29T09:19:12.451Z,9.47
2018-05-29T09:21:40.855Z,9.60
2018-05-29T09:24:10.642Z,9.53
2018-05-29T09:26:38.926Z,9.70
2018-05-29T09:29:07.207Z,9.07
2018-05-29T09:31:35.495Z,9.67
2018-05-29T09:34:03.779Z,9.10
2018-05-29T09:36:32.055Z,9.53
2018-05-29T09:39:00.374Z,9.27
2018-05-29T09:41:28.750Z,9.90
2018-05-29T09:43:57.094Z,10.90
2018-05-29T09:46:25.402Z,9.37
2018-05-29T09:48:53.682Z,9.60
2018-05-29T09:51:22.071Z,10.43
2018-05-29T09:53:50.358Z,10.47
2018-05-29T09:56:18.651Z,9.70
2018-05-29T09:58:46.906Z,9.60
2018-05-29T10:01:16.718Z,9.70
2018-05-29T10:03:45.687Z,9.53
2018-05-29T10:06:14.023Z,10.50
2018-05-29T10:08:42.285Z,9.93
2018-05-29T10:11:12.090Z,10.73
2018-05-29T10:13:41.159Z,10.03
2018-05-29T10:16:09.468Z,10.07
2018-05-29T10:18:38.551Z,10.40
2018-05-29T10:21:06.828Z,10.37
2018-05-29T10:23:35.097Z,10.33
2018-05-29T10:26:03.450Z,10.53
2018-05-29T10:28:31.723Z,10.87
2018-05-29T10:31:00.050Z,10.90
2018-05-29T10:33:28.306Z,10.93
2018-05-29T10:35:56.643Z,10.47
2018-05-29T10:38:24.927Z,11.33
2018-05-29T10:40:53.211Z,9.97
2018-05-29T10:43:21.522Z,11.23
2018-05-29T10:45:49.787Z,11.43
2018-05-29T10:48:18.898Z,9.90
2018-05-29T10:50:47.933Z,10.97
2018-05-29T10:53:17.761Z,10.77
2018-05-29T10:55:46.026Z,10.30
2018-05-29T10:58:14.339Z,10.80
2018-05-29T11:00:43.409Z,11.17
2018-05-29T11:03:11.759Z,10.33
2018-05-29T11:05:40.035Z,10.20
2018-05-29T11:08:08.352Z,10.90
2018-05-29T11:10:36.753Z,10.33
2018-05-29T11:13:05.809Z,10.70
2018-05-29T11:15:34.090Z,11.60
2018-05-29T11:18:02.414Z,11.17
2018-05-29T11:20:30.717Z,11.33
2018-05-29T11:22:59.197Z,11.20
2018-05-29T11:25:27.526Z,10.23
2018-05-29T11:27:55.836Z,10.80
2018-05-29T11:30:24.107Z,11.07
2018-05-29T11:32:52.386Z,10.20
2018-05-29T11:35:20.679Z,11.73
2018-05-29T11:37:49.036Z,10.30
2018-05-29T11:40:18.069Z,9.87
2018-05-29T11:42:46.339Z,11.37
2018-05-29T11:45:14.708Z,10.83
2018-05-29T11:47:43.220Z,11.87
2018-05-29T11:50:11.562Z,11.07
2018-05-29T11:52:39.914Z,10.60
2018-05-29T11:55:08.223Z,10.77
2018-05-29T11:57:36.514Z,10.27
2018-05-29T12:00:04.808Z,11.33
2018-05-29T12:02:33.514Z,11.07
2018-05-29T12:05:02.707Z,10.87
2018-05-29T12:07:30.991Z,11.67
2018-05-29T12:09:59.251Z,11.37
2018-05-29T12:12:28.287Z,11.70
2018-05-29T12:14:56.602Z,10.97
2018-05-29T12:17:25.670Z,10.80
2018-05-29T12:19:53.937Z,10.73
2018-05-29T12:22:22.263Z,11.40
2018-05-29T12:24:51.310Z,11.07
2018-05-29T12:27:19.590Z,11.60
2018-05-29T12:29:47.870Z,11.90
2018-05-29T12:32:16.172Z,11.13
2018-05-29T12:34:44.430Z,10.30
2018-05-29T12:37:12.817Z,12.07
2018-05-29T12:39:41.158Z,11.50
2018-05-29T12:42:09.491Z,11.33
2018-05-29T12:44:37.873Z,11.57
2018-05-29T12:47:06.175Z,11.43
2018-05-29T12:49:34.466Z,11.53
2018-05-29T12:52:02.779Z,11.23
2018-05-29T12:54:31.867Z,12.00
2018-05-29T12:57:00.242Z,12.20
2018-05-29T12:59:28.511Z,11.87
2018-05-29T13:01:58.311Z,12.00
2018-05-29T13:04:26.623Z,13.07
2018-05-29T13:06:54.897Z,12.80
2018-05-29T13:09:23.938Z,12.07
2018-05-29T13:11:53.083Z,12.70
2018-05-29T13:14:21.379Z,11.73
2018-05-29T13:16:49.617Z,12.90
2018-05-29T13:19:17.946Z,12.33
2018-05-29T13:21:46.222Z,12.43
2018-05-29T13:24:14.485Z,13.07
2018-05-29T13:26:42.747Z,12.10
2018-05-29T13:29:11.031Z,13.40
2018-05-29T13:31:40.418Z,12.40
2018-05-29T13:34:09.448Z,10.63
2018-05-29T13:36:37.809Z,11.50
2018-05-29T13:39:06.337Z,11.40
2018-05-29T13:41:34.608Z,12.47
2018-05-29T13:44:02.860Z,12.10
2018-05-29T13:46:31.166Z,12.20
2018-05-29T13:48:59.665Z,13.07
2018-05-29T13:51:28.853Z,12.40
2018-05-29T13:53:57.118Z,13.00
2018-05-29T13:56:25.456Z,12.20
2018-05-29T13:58:53.698Z,11.67
2018-05-29T14:01:22.774Z,12.27
2018-05-29T14:03:51.038Z,12.13
2018-05-29T14:06:19.466Z,12.70
2018-05-29T14:08:47.806Z,12.50
2018-05-29T14:11:16.862Z,14.23
2018-05-29T14:13:45.174Z,19.03
2018-05-29T14:16:13.517Z,18.67
2018-05-29T14:18:41.811Z,24.60
2018-05-29T14:21:10.079Z,26.43
2018-05-29T14:23:38.581Z,25.73
2018-05-29T14:26:06.840Z,27.80
2018-05-29T14:28:35.100Z,29.57
2018-05-29T14:31:03.367Z,32.27
2018-05-29T14:33:31.647Z,35.20
2018-05-29T14:35:59.889Z,31.37
2018-05-29T14:38:28.164Z,33.57
2018-05-29T14:40:57.199Z,30.57
2018-05-29T14:43:25.462Z,29.33
2018-05-29T14:45:53.826Z,29.90
2018-05-29T14:48:22.119Z,30.80
2018-05-29T14:50:50.380Z,29.50
2018-05-29T14:53:18.694Z,28.63
2018-05-29T14:55:46.945Z,28.60
2018-05-29T14:58:15.260Z,28.13
2018-05-29T15:00:43.574Z,27.20
2018-05-29T15:03:11.842Z,26.53
2018-05-29T15:05:40.107Z,25.70
2018-05-29T15:08:09.190Z,24.37
2018-05-29T15:10:37.517Z,23.23
2018-05-29T15:13:05.784Z,23.53
2018-05-29T15:15:34.052Z,18.90
2018-05-29T15:18:02.300Z,17.73
2018-05-29T15:20:31.472Z,15.67
2018-05-29T15:22:59.766Z,16.40
2018-05-29T15:25:28.834Z,15.70
2018-05-29T15:27:57.307Z,14.17
2018-05-29T15:30:27.577Z,14.07
2018-05-29T15:32:55.859Z,10.47
2018-05-29T15:35:24.108Z,10.07
2018-05-29T15:37:53.229Z,9.07
2018-05-29T15:40:21.474Z,7.37
2018-05-29T15:42:50.494Z,6.60
2018-05-29T15:45:18.759Z,6.60
2018-05-29T15:47:47.790Z,6.90
2018-05-29T15:50:16.042Z,8.10
2018-05-29T15:52:44.386Z,12.20
2018-05-29T15:55:12.658Z,12.90
2018-05-29T15:57:40.950Z,12.40
2018-05-29T16:00:09.958Z,12.93
2018-05-29T16:02:38.445Z,12.70
2018-05-29T16:05:06.747Z,11.57
2018-05-29T16:07:35.160Z,11.80
2018-05-29T16:10:04.185Z,13.17
2018-05-29T16:12:32.467Z,13.70
2018-05-29T16:15:01.346Z,13.93
2018-05-29T16:17:29.799Z,13.10
2018-05-29T16:19:58.140Z,14.17
2018-05-29T16:22:26.403Z,12.20
2018-05-29T16:24:54.678Z,16.13
2018-05-29T16:27:23.042Z,15.93
2018-05-29T16:29:51.305Z,15.47
2018-05-29T16:32:19.614Z,13.50
2018-05-29T16:34:47.854Z,13.93
2018-05-29T16:37:16.130Z,15.97
2018-05-29T16:39:44.422Z,17.00
2018-05-29T16:42:12.970Z,15.83
2018-05-29T16:44:41.262Z,16.47
2018-05-29T16:47:09.581Z,18.80
2018-05-29T16:49:37.921Z,18.03
2018-05-29T16:52:06.222Z,19.57
2018-05-29T16:54:34.482Z,21.37
2018-05-29T16:57:03.831Z,20.63
2018-05-29T16:59:34.264Z,22.63
2018-05-29T17:02:02.765Z,23.63
2018-05-29T17:04:31.054Z,21.63
2018-05-29T17:06:59.331Z,20.97
2018-05-29T17:09:27.642Z,21.67
2018-05-29T17:11:55.925Z,21.57
2018-05-29T17:14:24.308Z,19.47
2018-05-29T17:16:52.538Z,20.33
2018-05-29T17:19:20.844Z,19.87
2018-05-29T17:21:49.286Z,20.37
2018-05-29T17:24:18.303Z,22.60
2018-05-29T17:26:46.590Z,20.23
2018-05-29T17:29:15.046Z,19.33
2018-05-29T17:31:43.312Z,17.67
2018-05-29T17:34:11.605Z,17.50
2018-05-29T17:36:39.887Z,18.80
2018-05-29T17:39:08.197Z,19.40
2018-05-29T17:41:36.462Z,18.40
2018-05-29T17:44:04.736Z,16.57
2018-05-29T17:46:33.083Z,16.37
2018-05-29T17:49:01.488Z,16.57
2018-05-29T17:51:30.079Z,15.33
2018-05-29T17:53:59.588Z,15.53
2018-05-29T17:56:28.352Z,13.23
2018-05-29T17:58:57.248Z,10.57
2018-05-29T18:01:25.757Z,12.77
2018-05-29T18:03:55.071Z,11.93
2018-05-29T18:06:23.578Z,12.50
2018-05-29T18:08:52.084Z,10.03
2018-05-29T18:11:20.556Z,11.77
2018-05-29T18:13:50.575Z,10.40
2018-05-29T18:16:20.536Z,10.77
2018-05-29T18:18:48.976Z,9.90
2018-05-29T18:21:18.418Z,10.23
2018-05-29T18:23:46.962Z,9.83
2018-05-29T18:26:15.431Z,11.03
2018-05-29T18:28:44.583Z,11.47
2018-05-29T18:31:12.934Z,10.63
2018-05-29T18:33:42.016Z,10.57
2018-05-29T18:36:11.178Z,9.63
2018-05-29T18:38:39.484Z,9.30
2018-05-29T18:41:08.584Z,9.27
2018-05-29T18:43:36.870Z,9.30
2018-05-29T18:46:06.616Z,9.87
2018-05-29T18:48:34.890Z,8.93
2018-05-29T18:51:03.127Z,9.53
2018-05-29T18:53:32.161Z,9.43
2018-05-29T18:56:00.447Z,10.13
2018-05-29T18:58:28.758Z,10.63
2018-05-29T19:00:57.818Z,8.47
2018-05-29T19:03:26.149Z,8.60
2018-05-29T19:05:54.363Z,8.83
2018-05-29T19:08:22.714Z,9.27
2018-05-29T19:10:51.054Z,9.03
2018-05-29T19:13:19.826Z,8.67
2018-05-29T19:15:48.223Z,8.30
2018-05-29T19:18:16.504Z,8.57
2018-05-29T19:20:45.552Z,7.50
2018-05-29T19:23:13.951Z,7.80
2018-05-29T19:25:42.239Z,7.90
2018-05-29T19:28:12.211Z,7.23
2018-05-29T19:30:48.401Z,7.20
2018-05-29T19:33:16.881Z,6.80
2018-05-29T19:35:45.979Z,6.90
2018-05-29T19:38:14.341Z,7.07
2018-05-29T19:40:42.624Z,6.27
2018-05-29T19:43:10.952Z,6.50
2018-05-29T19:45:39.958Z,6.37
2018-05-29T19:48:08.299Z,5.93
2018-05-29T19:50:37.323Z,5.17
2018-05-29T19:53:11.922Z,5.83
2018-05-29T19:55:41.456Z,5.87
2018-05-29T19:58:10.545Z,5.47
2018-05-29T20:00:38.803Z,5.73
2018-05-29T20:03:07.766Z,5.10
2018-05-29T20:05:41.564Z,5.33
2018-05-29T20:08:09.804Z,5.57
2018-05-29T20:10:38.098Z,5.40
2018-05-29T20:13:06.373Z,5.13
2018-05-29T20:15:34.626Z,4.90
2018-05-29T20:18:02.947Z,5.77
2018-05-29T20:20:32.074Z,5.63
2018-05-29T20:23:00.365Z,5.20
2018-05-29T20:25:28.623Z,5.13
2018-05-29T20:27:56.882Z,4.77
2018-05-29T20:30:25.200Z,4.67
2018-05-29T20:32:53.411Z,4.47
2018-05-29T20:35:21.663Z,5.30
2018-05-29T20:37:49.914Z,4.60
2018-05-29T20:40:18.560Z,4.30
2018-05-29T20:42:46.792Z,3.80
2018-05-29T20:45:15.127Z,3.80
2018-05-29T20:47:43.404Z,4.13
2018-05-29T20:50:11.674Z,4.17
2018-05-29T20:52:40.670Z,3.60
2018-05-29T20:55:08.951Z,3.73
2018-05-29T20:57:37.959Z,3.40
2018-05-29T21:00:06.241Z,3.67
2018-05-29T21:02:34.512Z,3.50
2018-05-29T21:05:02.796Z,3.60
2018-05-29T21:07:32.543Z,4.13
2018-05-29T21:10:00.867Z,3.70
2018-05-29T21:12:29.139Z,3.50
2018-05-29T21:14:57.394Z,3.73
2018-05-29T21:17:41.502Z,4.00
2018-05-29T21:20:11.984Z,3.97
2018-05-29T21:22:40.665Z,3.50
2018-05-29T21:25:09.098Z,3.50
2018-05-29T21:27:37.846Z,3.47
2018-05-29T21:30:06.163Z,3.90
2018-05-29T21:32:34.407Z,3.73
2018-05-29T21:35:02.735Z,3.70
2018-05-29T21:37:30.914Z,3.40
2018-05-29T21:39:59.946Z,4.03
2018-05-29T21:42:28.190Z,3.47
2018-05-29T21:44:57.128Z,3.70
2018-05-29T21:47:25.364Z,4.30
2018-05-29T21:49:53.665Z,3.73
2018-05-29T21:52:21.881Z,3.90
2018-05-29T21:54:51.131Z,4.03
2018-05-29T21:57:19.375Z,4.03
2018-05-29T21:59:47.753Z,3.63
2018-05-29T22:02:16.756Z,3.83
2018-05-29T22:04:45.016Z,4.13
2018-05-29T22:07:13.266Z,3.80
2018-05-29T22:09:42.294Z,4.30
2018-05-29T22:12:10.583Z,4.20
2018-05-29T22:14:38.891Z,4.33
2018-05-29T22:17:07.203Z,4.20
2018-05-29T22:19:36.223Z,4.00
2018-05-29T22:22:04.488Z,4.47
2018-05-29T22:24:32.910Z,4.60
2018-05-29T22:27:01.285Z,4.30
2018-05-29T22:29:29.742Z,4.93
2018-05-29T22:31:58.011Z,4.43
2018-05-29T22:34:26.263Z,4.70
2018-05-29T22:36:54.529Z,5.00
2018-05-29T22:39:23.637Z,4.80
2018-05-29T22:41:51.983Z,5.20
2018-05-29T22:44:20.286Z,5.17
2018-05-29T22:46:48.674Z,5.27
2018-05-29T22:49:16.922Z,5.33
2018-05-29T22:51:46.055Z,5.17
2018-05-29T22:54:14.300Z,5.20
2018-05-29T22:56:42.578Z,5.23
2018-05-29T22:59:10.851Z,5.03
2018-05-29T23:01:39.083Z,4.40
2018-05-29T23:04:08.863Z,4.37
2018-05-29T23:06:37.120Z,5.10
2018-05-29T23:09:05.368Z,5.53
2018-05-29T23:11:34.387Z,5.60
2018-05-29T23:14:02.701Z,5.37
2018-05-29T23:16:31.084Z,5.33
2018-05-29T23:18:59.418Z,5.00
2018-05-29T23:21:27.828Z,5.43
2018-05-29T23:23:56.115Z,5.63
2018-05-29T23:26:24.443Z,5.83
2018-05-29T23:28:52.695Z,5.67
2018-05-29T23:31:21.009Z,5.97
2018-05-29T23:33:49.290Z,5.57
2018-05-29T23:36:17.535Z,6.03
2018-05-29T23:38:45.835Z,5.97
2018-05-29T23:41:14.087Z,5.90
2018-05-29T23:43:42.351Z,5.03
2018-05-29T23:46:10.621Z,6.17
2018-05-29T23:48:39.064Z,5.90
2018-05-29T23:51:08.847Z,6.63
2018-05-29T23:53:37.253Z,6.20
2018-05-29T23:56:05.538Z,6.23
2018-05-29T23:58:33.788Z,6.97
